createdAt,value
2019-03-15T00:00:30.396Z,24.30
2019-03-15T00:01:39.530Z,21.33
2019-03-15T00:02:47.496Z,20.20
2019-03-15T00:03:54.877Z,21.95
2019-03-15T00:05:04.165Z,17.12
2019-03-15T00:06:12.309Z,19.23
2019-03-15T00:07:19.671Z,19.92
2019-03-15T00:08:27.139Z,18.27
2019-03-15T00:09:34.641Z,20.72
2019-03-15T00:10:42.173Z,18.70
2019-03-15T00:11:49.317Z,17.67
2019-03-15T00:12:56.560Z,16.25
2019-03-15T00:14:04.041Z,21.10
2019-03-15T00:15:15.900Z,17.05
2019-03-15T00:16:23.040Z,18.40
2019-03-15T00:17:30.269Z,19.48
2019-03-15T00:18:37.671Z,19.05
2019-03-15T00:19:45.490Z,19.05
2019-03-15T00:20:53.401Z,17.70
2019-03-15T00:22:00.616Z,19.12
2019-03-15T00:23:08.049Z,18.10
2019-03-15T00:24:15.570Z,22.10
2019-03-15T00:25:23.761Z,15.38
2019-03-15T00:26:30.498Z,18.30
2019-03-15T00:27:37.919Z,18.52
2019-03-15T00:28:46.109Z,13.83
2019-03-15T00:29:53.290Z,16.00
2019-03-15T00:31:00.767Z,13.68
2019-03-15T00:32:08.699Z,16.62
2019-03-15T00:33:16.020Z,16.67
2019-03-15T00:34:23.219Z,11.33
2019-03-15T00:35:30.577Z,17.85
2019-03-15T00:36:37.530Z,17.25
2019-03-15T00:37:44.987Z,12.82
2019-03-15T00:38:52.359Z,14.98
2019-03-15T00:39:59.431Z,16.70
2019-03-15T00:41:07.008Z,14.63
2019-03-15T00:42:15.699Z,11.90
2019-03-15T00:43:23.202Z,16.07
2019-03-15T00:44:30.377Z,14.58
2019-03-15T00:45:37.652Z,14.13
2019-03-15T00:46:45.176Z,17.77
2019-03-15T00:47:52.180Z,14.78
2019-03-15T00:48:59.400Z,13.95
2019-03-15T00:50:07.059Z,14.30
2019-03-15T00:51:14.464Z,17.40
2019-03-15T00:52:21.780Z,14.45
2019-03-15T00:53:29.201Z,15.23
2019-03-15T00:54:36.282Z,12.58
2019-03-15T00:55:43.679Z,15.08
2019-03-15T00:56:51.140Z,14.58
2019-03-15T00:57:58.482Z,15.18
2019-03-15T00:59:05.827Z,14.85
2019-03-15T01:00:13.967Z,14.90
2019-03-15T01:01:21.164Z,13.03
2019-03-15T01:02:28.338Z,10.43
2019-03-15T01:03:35.937Z,13.83
2019-03-15T01:04:43.389Z,12.33
2019-03-15T01:05:50.521Z,12.50
2019-03-15T01:06:57.882Z,14.00
2019-03-15T01:08:04.830Z,12.15
2019-03-15T01:09:11.730Z,13.43
2019-03-15T01:10:18.991Z,13.93
2019-03-15T01:11:26.403Z,13.05
2019-03-15T01:12:33.858Z,12.88
2019-03-15T01:13:42.075Z,12.60
2019-03-15T01:14:49.482Z,13.53
2019-03-15T01:15:56.640Z,12.98
2019-03-15T01:17:03.831Z,10.13
2019-03-15T01:18:11.130Z,11.05
2019-03-15T01:19:18.626Z,13.70
2019-03-15T01:20:25.861Z,17.55
2019-03-15T01:21:33.038Z,14.25
2019-03-15T01:22:40.541Z,13.93
2019-03-15T01:23:49.066Z,12.73
2019-03-15T01:24:56.250Z,16.15
2019-03-15T01:26:03.648Z,12.82
2019-03-15T01:27:11.643Z,16.73
2019-03-15T01:28:18.757Z,16.62
2019-03-15T01:29:26.246Z,17.07
2019-03-15T01:30:33.132Z,15.63
2019-03-15T01:31:40.342Z,16.55
2019-03-15T01:32:48.685Z,17.60
2019-03-15T01:33:55.871Z,14.58
2019-03-15T01:35:03.193Z,16.12
2019-03-15T01:36:10.753Z,17.32
2019-03-15T01:37:18.838Z,19.12
2019-03-15T01:38:26.430Z,15.90
2019-03-15T01:39:34.006Z,14.43
2019-03-15T01:40:40.874Z,18.52
2019-03-15T01:41:49.040Z,17.73
2019-03-15T01:42:56.188Z,14.73
2019-03-15T01:44:03.625Z,16.48
2019-03-15T01:45:12.500Z,15.80
2019-03-15T01:46:19.620Z,17.15
2019-03-15T01:47:27.119Z,18.35
2019-03-15T01:48:34.498Z,16.27
2019-03-15T01:49:44.431Z,17.62
2019-03-15T01:50:50.538Z,15.93
2019-03-15T01:51:58.068Z,16.82
2019-03-15T01:53:05.289Z,18.62
2019-03-15T01:54:13.606Z,16.85
2019-03-15T01:55:21.045Z,14.87
2019-03-15T01:56:28.493Z,18.32
2019-03-15T01:57:35.855Z,18.85
2019-03-15T01:58:43.078Z,16.45
2019-03-15T01:59:50.546Z,17.30
2019-03-15T02:00:57.950Z,16.95
2019-03-15T02:02:05.267Z,18.77
2019-03-15T02:03:13.538Z,17.80
2019-03-15T02:04:21.041Z,15.35
2019-03-15T02:05:28.536Z,17.48
2019-03-15T02:06:35.948Z,18.32
2019-03-15T02:07:43.207Z,16.45
2019-03-15T02:08:50.300Z,14.43
2019-03-15T02:09:57.570Z,16.87
2019-03-15T02:11:05.110Z,16.95
2019-03-15T02:12:13.327Z,17.07
2019-03-15T02:13:21.591Z,17.45
2019-03-15T02:14:28.742Z,16.37
2019-03-15T02:15:36.127Z,16.77
2019-03-15T02:16:43.558Z,17.52
2019-03-15T02:17:50.961Z,15.15
2019-03-15T02:18:58.341Z,16.37
2019-03-15T02:20:05.919Z,16.95
2019-03-15T02:21:13.236Z,18.67
2019-03-15T02:22:20.538Z,17.25
2019-03-15T02:23:27.761Z,16.27
2019-03-15T02:24:35.282Z,15.65
2019-03-15T02:25:42.482Z,16.62
2019-03-15T02:26:49.773Z,20.25
2019-03-15T02:27:57.411Z,17.12
2019-03-15T02:29:05.668Z,16.70
2019-03-15T02:30:13.881Z,16.97
2019-03-15T02:31:22.551Z,20.25
2019-03-15T02:32:29.955Z,22.35
2019-03-15T02:33:37.216Z,19.02
2019-03-15T02:34:44.389Z,18.20
2019-03-15T02:35:52.752Z,18.30
2019-03-15T02:37:00.064Z,20.23
2019-03-15T02:38:07.091Z,17.52
2019-03-15T02:39:15.015Z,15.38
2019-03-15T02:40:22.347Z,18.77
2019-03-15T02:41:32.042Z,18.45
2019-03-15T02:42:39.743Z,17.23
2019-03-15T02:43:47.763Z,20.40
2019-03-15T02:44:54.707Z,20.57
2019-03-15T02:46:02.287Z,20.52
2019-03-15T02:47:09.496Z,18.17
2019-03-15T02:48:17.368Z,17.90
2019-03-15T02:49:24.801Z,19.67
2019-03-15T02:50:32.233Z,16.62
2019-03-15T02:51:39.283Z,14.73
2019-03-15T02:52:46.456Z,18.45
2019-03-15T02:53:53.542Z,17.60
2019-03-15T02:55:00.948Z,18.62
2019-03-15T02:56:08.343Z,21.60
2019-03-15T02:57:17.459Z,19.05
2019-03-15T02:58:24.727Z,17.85
2019-03-15T02:59:32.090Z,17.77
2019-03-15T03:00:40.355Z,20.27
2019-03-15T03:01:48.908Z,18.15
2019-03-15T03:02:56.271Z,17.35
2019-03-15T03:04:03.125Z,21.00
2019-03-15T03:05:10.201Z,15.40
2019-03-15T03:06:17.709Z,16.62
2019-03-15T03:07:26.198Z,20.43
2019-03-15T03:08:34.300Z,20.02
2019-03-15T03:09:41.570Z,20.65
2019-03-15T03:10:49.423Z,20.10
2019-03-15T03:11:56.739Z,21.33
2019-03-15T03:13:04.107Z,21.00
2019-03-15T03:14:11.585Z,19.90
2019-03-15T03:15:18.932Z,17.95
2019-03-15T03:16:25.733Z,21.62
2019-03-15T03:17:33.652Z,20.62
2019-03-15T03:18:41.615Z,21.90
2019-03-15T03:19:48.670Z,20.40
2019-03-15T03:20:55.999Z,20.90
2019-03-15T03:22:03.286Z,19.62
2019-03-15T03:23:10.753Z,17.95
2019-03-15T03:24:18.021Z,19.10
2019-03-15T03:25:25.310Z,21.27
2019-03-15T03:26:33.103Z,18.65
2019-03-15T03:27:40.480Z,19.65
2019-03-15T03:28:48.173Z,22.58
2019-03-15T03:29:55.504Z,19.77
2019-03-15T03:31:02.646Z,19.20
2019-03-15T03:32:09.791Z,21.55
2019-03-15T03:33:17.260Z,21.82
2019-03-15T03:34:24.349Z,19.00
2019-03-15T03:35:31.887Z,18.20
2019-03-15T03:36:39.296Z,19.77
2019-03-15T03:37:46.232Z,19.48
2019-03-15T03:38:53.365Z,21.17
2019-03-15T03:40:01.749Z,18.87
2019-03-15T03:41:09.847Z,19.35
2019-03-15T03:42:17.310Z,18.20
2019-03-15T03:43:24.796Z,18.82
2019-03-15T03:44:32.018Z,20.55
2019-03-15T03:45:39.270Z,19.15
2019-03-15T03:46:46.798Z,16.70
2019-03-15T03:47:55.024Z,18.35
2019-03-15T03:49:02.690Z,18.27
2019-03-15T03:50:10.109Z,18.40
2019-03-15T03:51:19.010Z,19.07
2019-03-15T03:52:26.468Z,17.95
2019-03-15T03:53:33.474Z,19.23
2019-03-15T03:54:40.748Z,20.52
2019-03-15T03:55:48.118Z,21.55
2019-03-15T03:56:55.034Z,21.05
2019-03-15T03:58:02.443Z,21.55
2019-03-15T03:59:10.205Z,19.55
2019-03-15T04:00:17.993Z,18.60
2019-03-15T04:01:26.450Z,18.35
2019-03-15T04:02:34.059Z,16.27
2019-03-15T04:03:41.363Z,17.52
2019-03-15T04:04:49.100Z,20.52
2019-03-15T04:05:56.483Z,17.02
2019-03-15T04:07:08.600Z,16.95
2019-03-15T04:08:16.036Z,18.15
2019-03-15T04:09:23.433Z,17.07
2019-03-15T04:10:30.741Z,21.40
2019-03-15T04:11:37.971Z,17.07
2019-03-15T04:12:46.210Z,17.73
2019-03-15T04:13:53.450Z,16.12
2019-03-15T04:15:01.148Z,18.55
2019-03-15T04:16:08.797Z,19.50
2019-03-15T04:17:16.206Z,19.07
2019-03-15T04:18:23.717Z,18.32
2019-03-15T04:19:31.326Z,18.35
2019-03-15T04:20:38.868Z,17.70
2019-03-15T04:21:46.081Z,15.18
2019-03-15T04:22:55.432Z,15.55
2019-03-15T04:24:02.447Z,19.73
2019-03-15T04:25:09.939Z,17.45
2019-03-15T04:26:17.707Z,19.17
2019-03-15T04:27:25.101Z,18.32
2019-03-15T04:28:32.109Z,16.67
2019-03-15T04:29:39.358Z,15.88
2019-03-15T04:30:46.750Z,19.40
2019-03-15T04:31:54.233Z,15.90
2019-03-15T04:33:01.933Z,16.55
2019-03-15T04:34:09.190Z,18.42
2019-03-15T04:35:17.490Z,18.77
2019-03-15T04:36:25.004Z,15.35
2019-03-15T04:37:32.369Z,17.70
2019-03-15T04:38:40.769Z,20.48
2019-03-15T04:39:48.272Z,18.52
2019-03-15T04:40:56.190Z,17.37
2019-03-15T04:42:03.604Z,15.60
2019-03-15T04:43:11.060Z,14.47
2019-03-15T04:44:18.252Z,20.08
2019-03-15T04:45:25.442Z,15.48
2019-03-15T04:46:32.479Z,17.55
2019-03-15T04:47:43.266Z,15.63
2019-03-15T04:48:48.778Z,16.80
2019-03-15T04:49:55.961Z,17.92
2019-03-15T04:51:03.189Z,16.95
2019-03-15T04:52:10.817Z,15.98
2019-03-15T04:53:18.326Z,17.37
2019-03-15T04:54:25.802Z,18.70
2019-03-15T04:55:32.946Z,17.60
2019-03-15T04:56:40.256Z,19.05
2019-03-15T04:57:47.526Z,17.92
2019-03-15T04:58:54.778Z,17.50
2019-03-15T05:00:01.978Z,16.80
2019-03-15T05:01:09.618Z,15.83
2019-03-15T05:02:17.148Z,17.12
2019-03-15T05:03:24.234Z,18.87
2019-03-15T05:04:31.903Z,17.40
2019-03-15T05:05:39.337Z,19.57
2019-03-15T05:06:46.800Z,18.15
2019-03-15T05:07:54.180Z,18.27
2019-03-15T05:09:01.375Z,18.92
2019-03-15T05:10:09.368Z,17.12
2019-03-15T05:11:16.477Z,18.23
2019-03-15T05:12:23.703Z,16.95
2019-03-15T05:13:31.264Z,19.23
2019-03-15T05:14:39.490Z,17.27
2019-03-15T05:15:46.893Z,18.00
2019-03-15T05:16:54.982Z,15.98
2019-03-15T05:18:03.798Z,14.55
2019-03-15T05:19:20.982Z,16.35
2019-03-15T05:20:28.705Z,13.95
2019-03-15T05:21:36.134Z,13.88
2019-03-15T05:22:44.093Z,14.55
2019-03-15T05:23:51.521Z,15.23
2019-03-15T05:24:58.810Z,14.18
2019-03-15T05:26:06.695Z,13.28
2019-03-15T05:27:14.170Z,13.18
2019-03-15T05:28:21.662Z,14.38
2019-03-15T05:29:28.800Z,13.80
2019-03-15T05:30:35.820Z,14.05
2019-03-15T05:31:43.302Z,13.85
2019-03-15T05:32:50.680Z,11.28
2019-03-15T05:33:59.064Z,12.78
2019-03-15T05:35:06.645Z,16.15
2019-03-15T05:36:14.234Z,13.48
2019-03-15T05:37:25.890Z,11.33
2019-03-15T05:38:39.846Z,14.90
2019-03-15T05:39:47.640Z,13.78
2019-03-15T05:40:55.362Z,12.78
2019-03-15T05:42:02.762Z,15.98
2019-03-15T05:43:10.302Z,15.40
2019-03-15T05:44:18.028Z,14.75
2019-03-15T05:45:25.447Z,12.98
2019-03-15T05:46:32.598Z,13.05
2019-03-15T05:47:40.373Z,14.68
2019-03-15T05:48:47.588Z,12.28
2019-03-15T05:49:54.969Z,12.23
2019-03-15T05:51:02.729Z,14.03
2019-03-15T05:52:10.375Z,16.45
2019-03-15T05:53:17.908Z,14.45
2019-03-15T05:54:25.292Z,11.65
2019-03-15T05:55:33.007Z,13.72
2019-03-15T05:56:40.619Z,13.55
2019-03-15T05:57:48.003Z,12.55
2019-03-15T05:58:54.998Z,13.22
2019-03-15T06:00:01.779Z,11.55
2019-03-15T06:01:08.548Z,9.93
2019-03-15T06:02:17.159Z,12.00
2019-03-15T06:03:24.506Z,13.03
2019-03-15T06:04:31.908Z,10.82
2019-03-15T06:05:39.280Z,12.90
2019-03-15T06:06:46.341Z,12.65
2019-03-15T06:07:53.638Z,11.73
2019-03-15T06:09:00.837Z,11.38
2019-03-15T06:10:08.981Z,12.78
2019-03-15T06:11:16.160Z,11.65
2019-03-15T06:12:24.000Z,13.10
2019-03-15T06:13:31.215Z,13.05
2019-03-15T06:14:38.661Z,11.30
2019-03-15T06:15:46.624Z,11.60
2019-03-15T06:16:54.231Z,12.15
2019-03-15T06:18:01.920Z,11.50
2019-03-15T06:19:09.367Z,12.68
2019-03-15T06:20:16.840Z,13.62
2019-03-15T06:21:24.044Z,11.48
2019-03-15T06:22:31.288Z,11.08
2019-03-15T06:23:38.592Z,11.12
2019-03-15T06:24:45.707Z,10.48
2019-03-15T06:25:54.331Z,10.63
2019-03-15T06:27:02.054Z,9.93
2019-03-15T06:28:08.864Z,9.68
2019-03-15T06:29:17.228Z,10.23
2019-03-15T06:30:24.482Z,9.95
2019-03-15T06:31:31.342Z,14.98
2019-03-15T06:32:38.655Z,10.70
2019-03-15T06:33:46.338Z,11.93
2019-03-15T06:34:54.699Z,12.30
2019-03-15T06:36:02.049Z,10.88
2019-03-15T06:37:09.472Z,13.05
2019-03-15T06:38:16.999Z,10.90
2019-03-15T06:39:24.723Z,11.48
2019-03-15T06:40:32.447Z,10.10
2019-03-15T06:41:39.698Z,9.23
2019-03-15T06:42:46.990Z,10.40
2019-03-15T06:43:54.199Z,14.43
2019-03-15T06:45:01.377Z,14.07
2019-03-15T06:46:08.729Z,9.85
2019-03-15T06:47:15.997Z,10.45
2019-03-15T06:48:24.579Z,12.13
2019-03-15T06:49:31.900Z,11.63
2019-03-15T06:50:39.560Z,11.73
2019-03-15T06:51:47.131Z,11.40
2019-03-15T06:52:54.839Z,10.65
2019-03-15T06:54:11.271Z,11.28
2019-03-15T06:55:11.085Z,12.15
2019-03-15T06:56:18.679Z,10.35
2019-03-15T06:57:26.386Z,10.05
2019-03-15T06:58:34.362Z,12.13
2019-03-15T06:59:41.969Z,10.48
2019-03-15T07:00:49.637Z,10.75
2019-03-15T07:01:56.700Z,13.98
2019-03-15T07:03:03.926Z,11.35
2019-03-15T07:04:11.142Z,11.08
2019-03-15T07:05:18.397Z,11.33
2019-03-15T07:06:25.832Z,12.13
2019-03-15T07:07:34.010Z,12.00
2019-03-15T07:08:41.728Z,11.20
2019-03-15T07:09:49.341Z,9.93
2019-03-15T07:10:56.786Z,9.95
2019-03-15T07:12:09.129Z,9.50
2019-03-15T07:13:13.642Z,11.12
2019-03-15T07:14:21.180Z,12.35
2019-03-15T07:15:29.424Z,11.80
2019-03-15T07:16:38.198Z,11.63
2019-03-15T07:17:47.777Z,13.88
2019-03-15T07:18:55.364Z,12.20
2019-03-15T07:20:02.842Z,13.08
2019-03-15T07:21:10.125Z,13.30
2019-03-15T07:22:19.847Z,12.68
2019-03-15T07:23:26.189Z,12.88
2019-03-15T07:24:33.412Z,15.18
2019-03-15T07:25:40.843Z,14.78
2019-03-15T07:26:48.846Z,16.35
2019-03-15T07:27:56.248Z,16.60
2019-03-15T07:29:03.531Z,14.15
2019-03-15T07:30:11.819Z,14.40
2019-03-15T07:31:20.158Z,12.98
2019-03-15T07:32:27.389Z,14.73
2019-03-15T07:33:35.125Z,13.72
2019-03-15T07:34:42.732Z,15.38
2019-03-15T07:35:50.044Z,16.00
2019-03-15T07:36:57.677Z,18.02
2019-03-15T07:38:05.137Z,19.00
2019-03-15T07:39:13.041Z,19.67
2019-03-15T07:40:20.349Z,14.47
2019-03-15T07:41:28.883Z,15.53
2019-03-15T07:42:36.693Z,12.95
2019-03-15T07:43:44.211Z,12.68
2019-03-15T07:44:51.726Z,13.80
2019-03-15T07:45:59.324Z,12.18
2019-03-15T07:47:06.743Z,13.18
2019-03-15T07:48:22.541Z,13.75
2019-03-15T07:49:22.794Z,14.68
2019-03-15T07:50:30.267Z,12.95
2019-03-15T07:51:37.955Z,11.57
2019-03-15T07:52:45.567Z,13.50
2019-03-15T07:53:52.828Z,14.28
2019-03-15T07:55:00.591Z,13.50
2019-03-15T07:56:08.299Z,12.98
2019-03-15T07:57:15.807Z,10.10
2019-03-15T07:58:23.357Z,13.88
2019-03-15T07:59:30.850Z,14.95
2019-03-15T08:00:38.355Z,13.03
2019-03-15T08:01:45.425Z,12.73
2019-03-15T08:02:52.673Z,14.13
2019-03-15T08:04:00.381Z,12.60
2019-03-15T08:05:08.251Z,11.40
2019-03-15T08:06:15.662Z,11.48
2019-03-15T08:07:35.480Z,10.63
2019-03-15T08:08:32.605Z,9.13
2019-03-15T08:09:40.358Z,11.93
2019-03-15T08:10:47.625Z,10.25
2019-03-15T08:11:55.130Z,9.33
2019-03-15T08:13:02.497Z,11.12
2019-03-15T08:14:09.407Z,11.85
2019-03-15T08:15:17.372Z,12.05
2019-03-15T08:16:24.654Z,10.58
2019-03-15T08:17:32.386Z,11.93
2019-03-15T08:18:40.497Z,12.82
2019-03-15T08:19:48.046Z,11.00
2019-03-15T08:20:55.546Z,10.78
2019-03-15T08:22:03.193Z,11.00
2019-03-15T08:23:10.733Z,11.83
2019-03-15T08:24:17.793Z,11.53
2019-03-15T08:25:25.077Z,10.95
2019-03-15T08:26:32.251Z,11.83
2019-03-15T08:27:40.196Z,10.60
2019-03-15T08:28:47.531Z,11.05
2019-03-15T08:29:55.132Z,11.88
2019-03-15T08:31:02.561Z,11.93
2019-03-15T08:32:09.719Z,11.45
2019-03-15T08:33:17.490Z,11.03
2019-03-15T08:34:24.710Z,13.40
2019-03-15T08:35:31.808Z,10.05
2019-03-15T08:36:39.929Z,12.90
2019-03-15T08:37:47.197Z,10.35
2019-03-15T08:38:54.791Z,12.25
2019-03-15T08:40:02.245Z,10.98
2019-03-15T08:41:09.611Z,11.93
2019-03-15T08:42:17.116Z,14.30
2019-03-15T08:43:24.583Z,12.45
2019-03-15T08:44:31.874Z,11.80
2019-03-15T08:45:39.058Z,13.62
2019-03-15T08:46:46.957Z,18.37
2019-03-15T08:47:54.491Z,15.88
2019-03-15T08:49:01.786Z,13.25
2019-03-15T08:50:09.969Z,11.33
2019-03-15T08:51:18.851Z,13.53
2019-03-15T08:52:26.311Z,14.65
2019-03-15T08:53:34.100Z,14.50
2019-03-15T08:54:41.560Z,13.53
2019-03-15T08:55:48.819Z,12.28
2019-03-15T08:56:55.978Z,11.78
2019-03-15T08:58:13.278Z,19.12
2019-03-15T08:59:12.903Z,10.60
2019-03-15T09:00:20.407Z,12.23
2019-03-15T09:01:27.798Z,9.80
2019-03-15T09:02:35.547Z,13.08
2019-03-15T09:03:42.942Z,11.48
2019-03-15T09:04:50.595Z,10.75
2019-03-15T09:05:58.388Z,9.45
2019-03-15T09:07:05.794Z,8.93
2019-03-15T09:08:13.137Z,8.83
2019-03-15T09:09:20.464Z,10.08
2019-03-15T09:10:28.203Z,8.43
2019-03-15T09:11:35.798Z,8.75
2019-03-15T09:12:43.212Z,10.68
2019-03-15T09:13:51.547Z,9.90
2019-03-15T09:14:59.048Z,9.80
2019-03-15T09:16:06.841Z,8.75
2019-03-15T09:17:13.998Z,10.32
2019-03-15T09:18:22.653Z,9.65
2019-03-15T09:19:29.865Z,11.40
2019-03-15T09:20:37.216Z,10.68
2019-03-15T09:21:44.697Z,9.40
2019-03-15T09:22:52.311Z,8.63
2019-03-15T09:23:59.531Z,8.83
2019-03-15T09:25:18.675Z,9.48
2019-03-15T09:26:16.483Z,9.20
2019-03-15T09:27:24.433Z,10.30
2019-03-15T09:28:31.680Z,11.53
2019-03-15T09:29:38.807Z,9.48
2019-03-15T09:30:46.240Z,9.68
2019-03-15T09:32:05.173Z,9.43
2019-03-15T09:33:03.387Z,10.95
2019-03-15T09:34:11.040Z,9.75
2019-03-15T09:35:18.389Z,10.75
2019-03-15T09:36:25.941Z,11.90
2019-03-15T09:37:33.304Z,10.85
2019-03-15T09:38:40.586Z,12.95
2019-03-15T09:39:47.920Z,12.03
2019-03-15T09:40:55.435Z,13.38
2019-03-15T09:42:02.992Z,11.90
2019-03-15T09:43:10.432Z,13.38
2019-03-15T09:44:18.168Z,15.98
2019-03-15T09:45:25.529Z,14.78
2019-03-15T09:46:32.848Z,14.55
2019-03-15T09:47:40.174Z,16.25
2019-03-15T09:48:47.919Z,14.38
2019-03-15T09:49:55.517Z,15.50
2019-03-15T09:51:02.725Z,14.20
2019-03-15T09:52:10.265Z,15.72
2019-03-15T09:53:17.552Z,14.45
2019-03-15T09:54:26.504Z,15.43
2019-03-15T09:55:34.927Z,14.28
2019-03-15T09:56:43.690Z,14.70
2019-03-15T09:57:52.182Z,16.57
2019-03-15T09:58:59.706Z,12.98
2019-03-15T10:00:08.708Z,11.73
2019-03-15T10:01:33.684Z,13.25
2019-03-15T10:02:30.565Z,13.58
2019-03-15T10:03:34.904Z,14.60
2019-03-15T10:04:42.496Z,14.87
2019-03-15T10:05:50.089Z,12.55
2019-03-15T10:06:57.939Z,13.70
2019-03-15T10:08:05.524Z,12.03
2019-03-15T10:09:13.357Z,11.35
2019-03-15T10:10:21.515Z,10.28
2019-03-15T10:11:29.077Z,11.18
2019-03-15T10:12:36.389Z,14.13
2019-03-15T10:13:43.963Z,11.95
2019-03-15T10:14:52.055Z,9.53
2019-03-15T10:15:59.483Z,10.98
2019-03-15T10:17:06.588Z,10.70
2019-03-15T10:18:13.737Z,9.65
2019-03-15T10:19:21.108Z,9.40
2019-03-15T10:20:28.959Z,10.75
2019-03-15T10:21:36.185Z,11.10
2019-03-15T10:22:43.637Z,9.88
2019-03-15T10:23:51.255Z,10.38
2019-03-15T10:24:58.139Z,8.55
2019-03-15T10:26:04.870Z,9.75
2019-03-15T10:27:11.758Z,7.42
2019-03-15T10:28:18.973Z,13.70
2019-03-15T10:29:26.407Z,8.08
2019-03-15T10:30:33.801Z,10.35
2019-03-15T10:31:41.011Z,9.50
2019-03-15T10:32:48.410Z,7.33
2019-03-15T10:33:55.809Z,7.87
2019-03-15T10:35:03.518Z,9.15
2019-03-15T10:36:11.136Z,8.35
2019-03-15T10:37:19.015Z,9.40
2019-03-15T10:38:26.700Z,7.47
2019-03-15T10:39:33.927Z,5.17
2019-03-15T10:40:41.412Z,7.87
2019-03-15T10:41:48.729Z,5.60
2019-03-15T10:42:55.989Z,4.75
2019-03-15T10:44:04.351Z,5.03
2019-03-15T10:45:11.758Z,5.90
2019-03-15T10:46:19.228Z,4.58
2019-03-15T10:47:26.572Z,6.12
2019-03-15T10:48:33.812Z,5.85
2019-03-15T10:49:40.942Z,4.65
2019-03-15T10:50:48.320Z,3.50
2019-03-15T10:51:55.868Z,4.83
2019-03-15T10:53:03.358Z,4.67
2019-03-15T10:54:11.563Z,3.72
2019-03-15T10:55:20.681Z,5.12
2019-03-15T10:56:27.968Z,4.40
2019-03-15T10:57:35.226Z,4.67
2019-03-15T10:58:44.170Z,5.28
2019-03-15T10:59:51.427Z,5.42
2019-03-15T11:00:58.635Z,3.60
2019-03-15T11:02:05.902Z,6.90
2019-03-15T11:03:13.410Z,4.22
2019-03-15T11:04:20.671Z,5.53
2019-03-15T11:05:28.100Z,4.85
2019-03-15T11:06:35.417Z,4.25
2019-03-15T11:07:42.841Z,4.03
2019-03-15T11:08:50.439Z,5.40
2019-03-15T11:09:58.040Z,6.00
2019-03-15T11:11:05.174Z,6.95
2019-03-15T11:12:12.631Z,8.28
2019-03-15T11:13:20.249Z,6.60
2019-03-15T11:14:28.151Z,5.78
2019-03-15T11:15:35.821Z,7.20
2019-03-15T11:16:43.092Z,6.37
2019-03-15T11:17:53.657Z,5.87
2019-03-15T11:19:07.914Z,7.15
2019-03-15T11:20:15.194Z,7.05
2019-03-15T11:21:22.654Z,7.28
2019-03-15T11:22:41.147Z,6.33
2019-03-15T11:23:48.796Z,7.65
2019-03-15T11:24:56.389Z,6.62
2019-03-15T11:26:13.547Z,6.03
2019-03-15T11:27:13.219Z,5.70
2019-03-15T11:28:20.846Z,6.50
2019-03-15T11:29:30.042Z,5.72
2019-03-15T11:30:37.308Z,6.35
2019-03-15T11:31:44.847Z,5.42
2019-03-15T11:32:52.048Z,5.97
2019-03-15T11:33:59.431Z,14.15
2019-03-15T11:35:07.411Z,8.15
2019-03-15T11:36:14.601Z,7.90
2019-03-15T11:37:22.401Z,6.95
2019-03-15T11:38:29.559Z,6.53
2019-03-15T11:39:37.039Z,7.45
2019-03-15T11:40:44.534Z,8.83
2019-03-15T11:41:51.889Z,8.78
2019-03-15T11:42:59.491Z,8.40
2019-03-15T11:44:06.718Z,5.33
2019-03-15T11:45:14.274Z,7.70
2019-03-15T11:46:21.737Z,4.95
2019-03-15T11:47:29.159Z,5.78
2019-03-15T11:48:36.798Z,4.87
2019-03-15T11:49:43.912Z,4.40
2019-03-15T11:50:51.139Z,2.58
2019-03-15T11:51:58.563Z,2.67
2019-03-15T11:53:05.924Z,3.02
2019-03-15T11:54:13.712Z,3.10
2019-03-15T11:55:21.180Z,3.75
2019-03-15T11:56:29.646Z,3.85
2019-03-15T11:57:38.267Z,3.12
2019-03-15T11:58:46.687Z,3.55
2019-03-15T12:00:18.741Z,3.60
2019-03-15T12:01:26.347Z,3.45
2019-03-15T12:02:33.774Z,4.15
2019-03-15T12:03:52.492Z,3.60
2019-03-15T12:04:50.806Z,4.28
2019-03-15T12:05:58.743Z,4.10
2019-03-15T12:07:06.395Z,6.37
2019-03-15T12:08:13.936Z,4.62
2019-03-15T12:09:21.524Z,5.28
2019-03-15T12:10:29.469Z,4.85
2019-03-15T12:11:36.938Z,5.08
2019-03-15T12:12:44.218Z,5.90
2019-03-15T12:13:51.768Z,4.70
2019-03-15T12:14:59.127Z,3.75
2019-03-15T12:16:06.502Z,3.80
2019-03-15T12:17:14.170Z,3.83
2019-03-15T12:18:21.456Z,4.22
2019-03-15T12:19:29.250Z,5.17
2019-03-15T12:20:37.021Z,5.78
2019-03-15T12:21:44.628Z,3.67
2019-03-15T12:22:52.249Z,5.37
2019-03-15T12:23:59.977Z,4.95
2019-03-15T12:25:07.761Z,4.65
2019-03-15T12:26:16.068Z,4.60
2019-03-15T12:27:23.756Z,4.53
2019-03-15T12:28:31.214Z,5.22
2019-03-15T12:29:38.861Z,4.00
2019-03-15T12:30:46.629Z,3.62
2019-03-15T12:31:54.265Z,3.12
2019-03-15T12:33:01.974Z,2.52
2019-03-15T12:34:09.432Z,1.85
2019-03-15T12:35:17.216Z,3.70
2019-03-15T12:36:24.680Z,1.75
2019-03-15T12:37:32.429Z,1.92
2019-03-15T12:38:40.110Z,1.77
2019-03-15T12:39:47.768Z,2.08
2019-03-15T12:40:55.687Z,3.17
2019-03-15T12:42:03.351Z,2.98
2019-03-15T12:43:11.039Z,2.85
2019-03-15T12:44:18.463Z,2.30
2019-03-15T12:45:25.901Z,4.92
2019-03-15T12:46:33.687Z,3.50
2019-03-15T12:47:41.261Z,2.87
2019-03-15T12:48:49.137Z,4.45
2019-03-15T12:49:56.779Z,3.52
2019-03-15T12:51:04.378Z,4.40
2019-03-15T12:52:11.960Z,2.77
2019-03-15T12:53:19.918Z,2.40
2019-03-15T12:54:28.013Z,2.22
2019-03-15T12:55:35.953Z,2.83
2019-03-15T12:56:53.279Z,2.35
2019-03-15T12:57:53.764Z,2.55
2019-03-15T12:59:01.625Z,2.55
2019-03-15T13:00:12.286Z,2.02
2019-03-15T13:01:21.321Z,2.33
2019-03-15T13:02:29.124Z,2.35
2019-03-15T13:03:36.404Z,2.58
2019-03-15T13:04:44.207Z,3.10
2019-03-15T13:05:52.071Z,3.05
2019-03-15T13:07:00.009Z,3.00
2019-03-15T13:08:07.502Z,4.28
2019-03-15T13:09:15.343Z,2.92
2019-03-15T13:10:22.631Z,3.58
2019-03-15T13:11:31.840Z,2.70
2019-03-15T13:12:39.733Z,3.25
2019-03-15T13:13:50.759Z,3.33
2019-03-15T13:14:57.087Z,3.17
2019-03-15T13:16:04.571Z,3.70
2019-03-15T13:17:12.317Z,5.17
2019-03-15T13:18:20.349Z,3.75
2019-03-15T13:19:28.203Z,3.15
2019-03-15T13:20:36.817Z,5.03
2019-03-15T13:21:44.689Z,2.75
2019-03-15T13:22:53.335Z,3.02
2019-03-15T13:24:01.334Z,3.98
2019-03-15T13:25:09.735Z,2.70
2019-03-15T13:26:17.441Z,2.85
2019-03-15T13:27:25.674Z,2.70
2019-03-15T13:28:33.884Z,2.52
2019-03-15T13:29:41.861Z,3.85
2019-03-15T13:30:49.704Z,4.10
2019-03-15T13:31:57.222Z,3.35
2019-03-15T13:33:05.089Z,3.40
2019-03-15T13:34:12.971Z,9.23
2019-03-15T13:35:20.820Z,4.10
2019-03-15T13:36:28.583Z,7.65
2019-03-15T13:37:37.385Z,9.53
2019-03-15T13:38:45.338Z,6.62
2019-03-15T13:39:53.144Z,3.58
2019-03-15T13:41:01.416Z,3.60
2019-03-15T13:42:09.458Z,5.47
2019-03-15T13:43:17.233Z,4.95
2019-03-15T13:44:26.215Z,6.72
2019-03-15T13:45:36.091Z,6.50
2019-03-15T13:46:44.135Z,6.87
2019-03-15T13:47:52.219Z,8.35
2019-03-15T13:49:00.105Z,7.58
2019-03-15T13:50:08.980Z,5.00
2019-03-15T13:51:17.269Z,5.17
2019-03-15T13:52:25.169Z,4.97
2019-03-15T13:53:33.081Z,3.22
2019-03-15T13:54:40.861Z,5.85
2019-03-15T13:55:49.269Z,4.87
2019-03-15T13:56:57.871Z,3.83
2019-03-15T13:58:06.353Z,6.35
2019-03-15T13:59:14.164Z,4.72
2019-03-15T14:00:22.088Z,4.67
2019-03-15T14:01:29.589Z,3.95
2019-03-15T14:02:37.528Z,6.53
2019-03-15T14:03:45.199Z,6.03
2019-03-15T14:04:52.559Z,10.23
2019-03-15T14:06:00.437Z,4.92
2019-03-15T14:07:08.156Z,5.85
2019-03-15T14:08:16.088Z,4.90
2019-03-15T14:09:24.347Z,8.48
2019-03-15T14:10:32.579Z,6.97
2019-03-15T14:11:40.414Z,5.55
2019-03-15T14:12:48.551Z,6.15
2019-03-15T14:13:56.758Z,5.90
2019-03-15T14:15:04.335Z,5.22
2019-03-15T14:16:12.388Z,6.22
2019-03-15T14:17:20.368Z,4.45
2019-03-15T14:18:29.638Z,7.83
2019-03-15T14:19:37.547Z,7.12
2019-03-15T14:20:45.434Z,6.58
2019-03-15T14:21:54.380Z,4.40
2019-03-15T14:23:02.173Z,3.67
2019-03-15T14:24:09.984Z,3.33
2019-03-15T14:25:18.311Z,3.98
2019-03-15T14:26:29.026Z,4.12
2019-03-15T14:27:38.065Z,5.33
2019-03-15T14:28:46.382Z,8.65
2019-03-15T14:29:54.333Z,4.78
2019-03-15T14:31:02.193Z,4.78
2019-03-15T14:32:11.020Z,8.55
2019-03-15T14:33:18.955Z,7.08
2019-03-15T14:34:26.407Z,5.40
2019-03-15T14:35:34.392Z,6.00
2019-03-15T14:36:42.786Z,3.67
2019-03-15T14:37:50.837Z,3.98
2019-03-15T14:38:58.747Z,5.28
2019-03-15T14:40:07.327Z,3.98
2019-03-15T14:41:16.645Z,3.85
2019-03-15T14:42:24.945Z,4.83